sensor_id;sensor_type;location;lat;lon;timestamp;temperature;humidity
75430;DHT22;64127;51.488;5.462;2024-03-06T00:00:06;7.70;99.90
75430;DHT22;64127;51.488;5.462;2024-03-06T00:02:41;7.70;99.90
75430;DHT22;64127;51.488;5.462;2024-03-06T00:05:13;7.70;99.90
75430;DHT22;64127;51.488;5.462;2024-03-06T00:07:46;7.70;99.90
75430;DHT22;64127;51.488;5.462;2024-03-06T00:10:18;7.70;99.90
75430;DHT22;64127;51.488;5.462;2024-03-06T00:12:50;7.60;99.90
75430;DHT22;64127;51.488;5.462;2024-03-06T00:15:23;7.70;99.90
75430;DHT22;64127;51.488;5.462;2024-03-06T00:17:55;7.60;99.90
75430;DHT22;64127;51.488;5.462;2024-03-06T00:20:27;7.60;99.90
75430;DHT22;64127;51.488;5.462;2024-03-06T00:23:00;7.60;99.90
75430;DHT22;64127;51.488;5.462;2024-03-06T00:25:32;7.60;99.90
75430;DHT22;64127;51.488;5.462;2024-03-06T00:28:04;7.60;99.90
75430;DHT22;64127;51.488;5.462;2024-03-06T00:30:37;7.50;99.90
75430;DHT22;64127;51.488;5.462;2024-03-06T00:33:09;7.50;99.90
75430;DHT22;64127;51.488;5.462;2024-03-06T00:35:41;7.40;99.90
75430;DHT22;64127;51.488;5.462;2024-03-06T00:38:14;7.50;99.90
75430;DHT22;64127;51.488;5.462;2024-03-06T00:40:46;7.40;99.90
75430;DHT22;64127;51.488;5.462;2024-03-06T00:43:18;7.40;99.90
75430;DHT22;64127;51.488;5.462;2024-03-06T00:45:50;7.40;99.90
75430;DHT22;64127;51.488;5.462;2024-03-06T00:48:22;7.30;99.90
75430;DHT22;64127;51.488;5.462;2024-03-06T00:50:54;7.30;99.90
75430;DHT22;64127;51.488;5.462;2024-03-06T00:53:26;7.30;99.90
75430;DHT22;64127;51.488;5.462;2024-03-06T00:55:58;7.30;99.90
75430;DHT22;64127;51.488;5.462;2024-03-06T00:58:30;7.20;99.90
75430;DHT22;64127;51.488;5.462;2024-03-06T01:01:03;7.20;99.90
75430;DHT22;64127;51.488;5.462;2024-03-06T01:03:37;7.20;99.90
75430;DHT22;64127;51.488;5.462;2024-03-06T01:06:09;7.20;99.90
75430;DHT22;64127;51.488;5.462;2024-03-06T01:08:42;7.10;99.90
75430;DHT22;64127;51.488;5.462;2024-03-06T01:11:15;7.10;99.90
75430;DHT22;64127;51.488;5.462;2024-03-06T01:13:47;7.00;99.90
75430;DHT22;64127;51.488;5.462;2024-03-06T01:16:19;7.10;99.90
75430;DHT22;64127;51.488;5.462;2024-03-06T01:18:52;7.00;99.90
75430;DHT22;64127;51.488;5.462;2024-03-06T01:21:24;7.00;99.90
75430;DHT22;64127;51.488;5.462;2024-03-06T01:23:56;7.00;99.90
75430;DHT22;64127;51.488;5.462;2024-03-06T01:26:29;6.90;99.90
75430;DHT22;64127;51.488;5.462;2024-03-06T01:29:01;6.90;99.90
75430;DHT22;64127;51.488;5.462;2024-03-06T01:31:33;6.90;99.90
75430;DHT22;64127;51.488;5.462;2024-03-06T01:34:05;6.90;99.90
75430;DHT22;64127;51.488;5.462;2024-03-06T01:36:37;6.90;99.90
75430;DHT22;64127;51.488;5.462;2024-03-06T01:39:09;6.80;99.90
75430;DHT22;64127;51.488;5.462;2024-03-06T01:41:49;6.80;99.90
75430;DHT22;64127;51.488;5.462;2024-03-06T01:44:22;6.80;99.90
75430;DHT22;64127;51.488;5.462;2024-03-06T01:46:54;6.70;99.90
75430;DHT22;64127;51.488;5.462;2024-03-06T01:49:26;6.80;99.90
75430;DHT22;64127;51.488;5.462;2024-03-06T01:52:13;6.70;99.90
75430;DHT22;64127;51.488;5.462;2024-03-06T01:54:48;6.70;99.90
75430;DHT22;64127;51.488;5.462;2024-03-06T01:57:22;6.70;99.90
75430;DHT22;64127;51.488;5.462;2024-03-06T01:59:54;6.70;99.90
75430;DHT22;64127;51.488;5.462;2024-03-06T02:02:26;6.70;99.90
75430;DHT22;64127;51.488;5.462;2024-03-06T02:04:59;6.60;99.90
75430;DHT22;64127;51.488;5.462;2024-03-06T02:07:32;6.60;99.90
75430;DHT22;64127;51.488;5.462;2024-03-06T02:10:06;6.60;99.90
75430;DHT22;64127;51.488;5.462;2024-03-06T02:12:41;6.60;99.90
75430;DHT22;64127;51.488;5.462;2024-03-06T02:15:14;6.60;99.90
75430;DHT22;64127;51.488;5.462;2024-03-06T02:17:46;6.60;99.90
75430;DHT22;64127;51.488;5.462;2024-03-06T02:20:25;6.50;99.90
75430;DHT22;64127;51.488;5.462;2024-03-06T02:22:58;6.50;99.90
75430;DHT22;64127;51.488;5.462;2024-03-06T02:25:30;6.50;99.90
75430;DHT22;64127;51.488;5.462;2024-03-06T02:28:02;6.50;99.90
75430;DHT22;64127;51.488;5.462;2024-03-06T02:30:34;6.40;99.90
75430;DHT22;64127;51.488;5.462;2024-03-06T02:33:09;6.40;99.90
75430;DHT22;64127;51.488;5.462;2024-03-06T02:35:41;6.40;99.90
75430;DHT22;64127;51.488;5.462;2024-03-06T02:38:16;6.40;99.90
75430;DHT22;64127;51.488;5.462;2024-03-06T02:40:48;6.40;99.90
75430;DHT22;64127;51.488;5.462;2024-03-06T02:43:20;6.30;99.90
75430;DHT22;64127;51.488;5.462;2024-03-06T02:45:52;6.30;99.90
75430;DHT22;64127;51.488;5.462;2024-03-06T02:48:24;6.30;99.90
75430;DHT22;64127;51.488;5.462;2024-03-06T02:50:57;6.40;99.90
75430;DHT22;64127;51.488;5.462;2024-03-06T02:53:30;6.30;99.90
75430;DHT22;64127;51.488;5.462;2024-03-06T02:56:03;6.40;99.90
75430;DHT22;64127;51.488;5.462;2024-03-06T02:58:35;6.30;99.90
75430;DHT22;64127;51.488;5.462;2024-03-06T03:01:07;6.30;99.90
75430;DHT22;64127;51.488;5.462;2024-03-06T03:03:41;6.30;99.90
75430;DHT22;64127;51.488;5.462;2024-03-06T03:06:14;6.20;99.90
75430;DHT22;64127;51.488;5.462;2024-03-06T03:08:46;6.20;99.90
75430;DHT22;64127;51.488;5.462;2024-03-06T03:11:19;6.20;99.90
75430;DHT22;64127;51.488;5.462;2024-03-06T03:13:51;6.20;99.90
75430;DHT22;64127;51.488;5.462;2024-03-06T03:16:23;6.20;99.90
75430;DHT22;64127;51.488;5.462;2024-03-06T03:18:55;6.20;99.90
75430;DHT22;64127;51.488;5.462;2024-03-06T03:21:28;6.10;99.90
75430;DHT22;64127;51.488;5.462;2024-03-06T03:24:00;6.10;99.90
75430;DHT22;64127;51.488;5.462;2024-03-06T03:26:32;6.10;99.90
75430;DHT22;64127;51.488;5.462;2024-03-06T03:29:04;6.10;99.90
75430;DHT22;64127;51.488;5.462;2024-03-06T03:31:37;6.10;99.90
75430;DHT22;64127;51.488;5.462;2024-03-06T03:34:10;6.10;99.90
75430;DHT22;64127;51.488;5.462;2024-03-06T03:36:43;6.10;99.90
75430;DHT22;64127;51.488;5.462;2024-03-06T03:39:15;6.00;99.90
75430;DHT22;64127;51.488;5.462;2024-03-06T03:41:48;6.00;99.90
75430;DHT22;64127;51.488;5.462;2024-03-06T03:44:21;6.00;99.90
75430;DHT22;64127;51.488;5.462;2024-03-06T03:46:53;6.00;99.90
75430;DHT22;64127;51.488;5.462;2024-03-06T03:49:25;6.00;99.90
75430;DHT22;64127;51.488;5.462;2024-03-06T03:51:58;6.00;99.90
75430;DHT22;64127;51.488;5.462;2024-03-06T03:54:30;6.00;99.90
75430;DHT22;64127;51.488;5.462;2024-03-06T03:57:02;6.00;99.90
75430;DHT22;64127;51.488;5.462;2024-03-06T03:59:34;6.00;99.90
75430;DHT22;64127;51.488;5.462;2024-03-06T04:02:06;6.00;99.90
75430;DHT22;64127;51.488;5.462;2024-03-06T04:04:38;6.00;99.90
75430;DHT22;64127;51.488;5.462;2024-03-06T04:07:11;6.00;99.90
75430;DHT22;64127;51.488;5.462;2024-03-06T04:09:43;6.00;99.90
75430;DHT22;64127;51.488;5.462;2024-03-06T04:12:15;6.00;99.90
75430;DHT22;64127;51.488;5.462;2024-03-06T04:14:47;6.00;99.90
75430;DHT22;64127;51.488;5.462;2024-03-06T04:17:19;6.00;99.90
75430;DHT22;64127;51.488;5.462;2024-03-06T04:19:51;6.00;99.90
75430;DHT22;64127;51.488;5.462;2024-03-06T04:22:25;6.00;99.90
75430;DHT22;64127;51.488;5.462;2024-03-06T04:24:57;6.00;99.90
75430;DHT22;64127;51.488;5.462;2024-03-06T04:27:30;6.00;99.90
75430;DHT22;64127;51.488;5.462;2024-03-06T04:30:03;6.00;99.90
75430;DHT22;64127;51.488;5.462;2024-03-06T04:32:35;6.00;99.90
75430;DHT22;64127;51.488;5.462;2024-03-06T04:35:08;6.00;99.90
75430;DHT22;64127;51.488;5.462;2024-03-06T04:37:43;6.00;99.90
75430;DHT22;64127;51.488;5.462;2024-03-06T04:40:16;5.90;99.90
75430;DHT22;64127;51.488;5.462;2024-03-06T04:42:49;5.90;99.90
75430;DHT22;64127;51.488;5.462;2024-03-06T04:45:21;5.90;99.90
75430;DHT22;64127;51.488;5.462;2024-03-06T04:47:54;5.90;99.90
75430;DHT22;64127;51.488;5.462;2024-03-06T04:50:26;6.00;99.90
75430;DHT22;64127;51.488;5.462;2024-03-06T04:52:59;6.00;99.90
75430;DHT22;64127;51.488;5.462;2024-03-06T04:55:31;6.00;99.90
75430;DHT22;64127;51.488;5.462;2024-03-06T04:58:03;6.00;99.90
75430;DHT22;64127;51.488;5.462;2024-03-06T05:00:36;5.90;99.90
75430;DHT22;64127;51.488;5.462;2024-03-06T05:03:08;5.90;99.90
75430;DHT22;64127;51.488;5.462;2024-03-06T05:05:58;5.90;99.90
75430;DHT22;64127;51.488;5.462;2024-03-06T05:08:47;5.90;99.90
75430;DHT22;64127;51.488;5.462;2024-03-06T05:11:40;5.90;99.90
75430;DHT22;64127;51.488;5.462;2024-03-06T05:14:29;5.90;99.90
75430;DHT22;64127;51.488;5.462;2024-03-06T05:17:19;5.80;99.90
75430;DHT22;64127;51.488;5.462;2024-03-06T05:20:09;5.80;99.90
75430;DHT22;64127;51.488;5.462;2024-03-06T05:22:59;5.70;99.90
75430;DHT22;64127;51.488;5.462;2024-03-06T05:25:49;5.70;99.90
75430;DHT22;64127;51.488;5.462;2024-03-06T05:28:39;5.70;99.90
75430;DHT22;64127;51.488;5.462;2024-03-06T05:31:28;5.60;99.90
75430;DHT22;64127;51.488;5.462;2024-03-06T05:34:18;5.60;99.90
75430;DHT22;64127;51.488;5.462;2024-03-06T05:37:07;5.60;99.90
75430;DHT22;64127;51.488;5.462;2024-03-06T05:39:57;5.50;99.90
75430;DHT22;64127;51.488;5.462;2024-03-06T05:42:46;5.50;99.90
75430;DHT22;64127;51.488;5.462;2024-03-06T05:45:36;5.50;99.90
75430;DHT22;64127;51.488;5.462;2024-03-06T05:48:26;5.40;99.90
75430;DHT22;64127;51.488;5.462;2024-03-06T05:51:16;5.40;99.90
75430;DHT22;64127;51.488;5.462;2024-03-06T05:54:05;5.40;99.90
75430;DHT22;64127;51.488;5.462;2024-03-06T05:56:57;5.40;99.90
75430;DHT22;64127;51.488;5.462;2024-03-06T05:59:46;5.30;99.90
75430;DHT22;64127;51.488;5.462;2024-03-06T06:02:18;5.30;99.90
75430;DHT22;64127;51.488;5.462;2024-03-06T06:04:54;5.30;99.90
75430;DHT22;64127;51.488;5.462;2024-03-06T06:07:47;5.30;99.90
75430;DHT22;64127;51.488;5.462;2024-03-06T06:10:19;5.30;99.90
75430;DHT22;64127;51.488;5.462;2024-03-06T06:12:53;5.30;99.90
75430;DHT22;64127;51.488;5.462;2024-03-06T06:15:25;5.20;99.90
75430;DHT22;64127;51.488;5.462;2024-03-06T06:17:57;5.20;99.90
75430;DHT22;64127;51.488;5.462;2024-03-06T06:20:30;5.20;99.90
75430;DHT22;64127;51.488;5.462;2024-03-06T06:23:02;5.20;99.90
75430;DHT22;64127;51.488;5.462;2024-03-06T06:25:35;5.20;99.90
75430;DHT22;64127;51.488;5.462;2024-03-06T06:28:07;5.10;99.90
75430;DHT22;64127;51.488;5.462;2024-03-06T06:30:42;5.10;99.90
75430;DHT22;64127;51.488;5.462;2024-03-06T06:33:14;5.10;99.90
75430;DHT22;64127;51.488;5.462;2024-03-06T06:35:47;5.10;99.90
75430;DHT22;64127;51.488;5.462;2024-03-06T06:38:19;5.10;99.90
75430;DHT22;64127;51.488;5.462;2024-03-06T06:40:51;5.10;99.90
75430;DHT22;64127;51.488;5.462;2024-03-06T06:43:24;5.10;99.90
75430;DHT22;64127;51.488;5.462;2024-03-06T06:45:56;5.10;99.90
75430;DHT22;64127;51.488;5.462;2024-03-06T06:48:30;5.10;99.90
75430;DHT22;64127;51.488;5.462;2024-03-06T06:51:03;5.10;99.90
75430;DHT22;64127;51.488;5.462;2024-03-06T06:53:35;5.20;99.90
75430;DHT22;64127;51.488;5.462;2024-03-06T06:56:07;5.20;99.90
75430;DHT22;64127;51.488;5.462;2024-03-06T06:58:40;5.20;99.90
75430;DHT22;64127;51.488;5.462;2024-03-06T07:01:14;5.30;99.90
75430;DHT22;64127;51.488;5.462;2024-03-06T07:03:48;5.40;99.90
75430;DHT22;64127;51.488;5.462;2024-03-06T07:06:20;5.40;99.90
75430;DHT22;64127;51.488;5.462;2024-03-06T07:08:53;5.50;99.90
75430;DHT22;64127;51.488;5.462;2024-03-06T07:11:25;5.60;99.90
75430;DHT22;64127;51.488;5.462;2024-03-06T07:13:57;5.70;99.90
75430;DHT22;64127;51.488;5.462;2024-03-06T07:16:29;5.80;99.90
75430;DHT22;64127;51.488;5.462;2024-03-06T07:19:02;5.90;99.90
75430;DHT22;64127;51.488;5.462;2024-03-06T07:21:34;6.00;99.90
75430;DHT22;64127;51.488;5.462;2024-03-06T07:24:06;6.20;99.90
75430;DHT22;64127;51.488;5.462;2024-03-06T07:26:38;6.30;99.90
75430;DHT22;64127;51.488;5.462;2024-03-06T07:29:11;6.40;99.90
75430;DHT22;64127;51.488;5.462;2024-03-06T07:31:47;6.50;99.90
75430;DHT22;64127;51.488;5.462;2024-03-06T07:34:20;6.70;99.90
75430;DHT22;64127;51.488;5.462;2024-03-06T07:36:55;6.80;99.90
75430;DHT22;64127;51.488;5.462;2024-03-06T07:39:27;7.00;99.90
75430;DHT22;64127;51.488;5.462;2024-03-06T07:41:59;7.00;99.90
75430;DHT22;64127;51.488;5.462;2024-03-06T07:44:31;7.10;99.90
75430;DHT22;64127;51.488;5.462;2024-03-06T07:47:04;7.20;99.90
75430;DHT22;64127;51.488;5.462;2024-03-06T07:49:36;7.30;99.90
75430;DHT22;64127;51.488;5.462;2024-03-06T07:52:08;7.40;99.90
75430;DHT22;64127;51.488;5.462;2024-03-06T07:54:40;7.60;99.90
75430;DHT22;64127;51.488;5.462;2024-03-06T07:57:12;7.80;99.90
75430;DHT22;64127;51.488;5.462;2024-03-06T07:59:44;8.00;99.90
75430;DHT22;64127;51.488;5.462;2024-03-06T08:02:17;8.10;99.90
75430;DHT22;64127;51.488;5.462;2024-03-06T08:04:49;8.30;99.90
75430;DHT22;64127;51.488;5.462;2024-03-06T08:07:22;8.60;99.90
75430;DHT22;64127;51.488;5.462;2024-03-06T08:09:54;8.70;99.90
75430;DHT22;64127;51.488;5.462;2024-03-06T08:12:26;8.70;99.90
75430;DHT22;64127;51.488;5.462;2024-03-06T08:14:58;8.60;99.90
75430;DHT22;64127;51.488;5.462;2024-03-06T08:17:30;8.60;99.90
75430;DHT22;64127;51.488;5.462;2024-03-06T08:20:02;8.70;99.90
75430;DHT22;64127;51.488;5.462;2024-03-06T08:22:40;8.80;99.90
75430;DHT22;64127;51.488;5.462;2024-03-06T08:25:13;8.90;99.90
75430;DHT22;64127;51.488;5.462;2024-03-06T08:27:46;9.20;99.90
75430;DHT22;64127;51.488;5.462;2024-03-06T08:30:18;9.50;99.90
75430;DHT22;64127;51.488;5.462;2024-03-06T08:32:51;9.70;99.90
75430;DHT22;64127;51.488;5.462;2024-03-06T08:35:23;9.90;99.90
75430;DHT22;64127;51.488;5.462;2024-03-06T08:37:56;10.10;99.90
75430;DHT22;64127;51.488;5.462;2024-03-06T08:40:28;10.30;99.90
75430;DHT22;64127;51.488;5.462;2024-03-06T08:43:00;10.50;99.90
75430;DHT22;64127;51.488;5.462;2024-03-06T08:45:32;10.60;99.90
75430;DHT22;64127;51.488;5.462;2024-03-06T08:48:05;10.80;99.90
75430;DHT22;64127;51.488;5.462;2024-03-06T08:50:38;11.00;99.90
75430;DHT22;64127;51.488;5.462;2024-03-06T08:53:11;11.10;99.90
75430;DHT22;64127;51.488;5.462;2024-03-06T08:55:45;11.20;99.90
75430;DHT22;64127;51.488;5.462;2024-03-06T08:58:17;11.40;99.90
75430;DHT22;64127;51.488;5.462;2024-03-06T09:00:52;11.50;99.90
75430;DHT22;64127;51.488;5.462;2024-03-06T09:03:25;11.70;99.90
75430;DHT22;64127;51.488;5.462;2024-03-06T09:05:57;11.80;99.90
75430;DHT22;64127;51.488;5.462;2024-03-06T09:08:31;11.90;99.90
75430;DHT22;64127;51.488;5.462;2024-03-06T09:11:04;12.00;99.90
75430;DHT22;64127;51.488;5.462;2024-03-06T09:13:36;12.10;99.90
75430;DHT22;64127;51.488;5.462;2024-03-06T09:16:08;12.20;99.90
75430;DHT22;64127;51.488;5.462;2024-03-06T09:18:40;12.30;99.90
75430;DHT22;64127;51.488;5.462;2024-03-06T09:21:12;12.40;99.90
75430;DHT22;64127;51.488;5.462;2024-03-06T09:23:44;12.70;99.90
75430;DHT22;64127;51.488;5.462;2024-03-06T09:26:17;12.80;99.90
75430;DHT22;64127;51.488;5.462;2024-03-06T09:28:49;13.10;99.90
75430;DHT22;64127;51.488;5.462;2024-03-06T09:31:21;13.30;99.90
75430;DHT22;64127;51.488;5.462;2024-03-06T09:33:54;13.40;99.90
75430;DHT22;64127;51.488;5.462;2024-03-06T09:36:26;13.60;99.90
75430;DHT22;64127;51.488;5.462;2024-03-06T09:38:58;13.70;99.90
75430;DHT22;64127;51.488;5.462;2024-03-06T09:41:35;13.80;99.90
75430;DHT22;64127;51.488;5.462;2024-03-06T09:44:07;13.70;99.90
75430;DHT22;64127;51.488;5.462;2024-03-06T09:46:44;13.70;99.90
75430;DHT22;64127;51.488;5.462;2024-03-06T09:49:18;13.60;99.90
75430;DHT22;64127;51.488;5.462;2024-03-06T09:51:51;13.40;99.90
75430;DHT22;64127;51.488;5.462;2024-03-06T09:54:28;13.30;99.90
75430;DHT22;64127;51.488;5.462;2024-03-06T09:57:01;13.30;99.90
75430;DHT22;64127;51.488;5.462;2024-03-06T09:59:33;13.30;99.90
75430;DHT22;64127;51.488;5.462;2024-03-06T10:02:18;13.20;99.90
75430;DHT22;64127;51.488;5.462;2024-03-06T10:05:00;13.30;99.90
75430;DHT22;64127;51.488;5.462;2024-03-06T10:07:32;13.30;99.90
75430;DHT22;64127;51.488;5.462;2024-03-06T10:10:05;13.20;99.90
75430;DHT22;64127;51.488;5.462;2024-03-06T10:12:37;13.20;99.90
75430;DHT22;64127;51.488;5.462;2024-03-06T10:15:10;13.10;99.90
75430;DHT22;64127;51.488;5.462;2024-03-06T10:17:44;13.00;99.90
75430;DHT22;64127;51.488;5.462;2024-03-06T10:20:20;13.00;99.90
75430;DHT22;64127;51.488;5.462;2024-03-06T10:22:56;13.00;99.90
75430;DHT22;64127;51.488;5.462;2024-03-06T10:25:30;13.10;99.90
75430;DHT22;64127;51.488;5.462;2024-03-06T10:28:08;13.20;99.90
75430;DHT22;64127;51.488;5.462;2024-03-06T10:30:42;13.30;99.90
75430;DHT22;64127;51.488;5.462;2024-03-06T10:33:17;13.40;99.90
75430;DHT22;64127;51.488;5.462;2024-03-06T10:35:53;13.60;99.90
75430;DHT22;64127;51.488;5.462;2024-03-06T10:38:28;13.90;99.90
75430;DHT22;64127;51.488;5.462;2024-03-06T10:41:08;14.20;99.90
75430;DHT22;64127;51.488;5.462;2024-03-06T10:43:47;14.40;99.90
75430;DHT22;64127;51.488;5.462;2024-03-06T10:46:27;14.70;99.90
75430;DHT22;64127;51.488;5.462;2024-03-06T10:49:01;14.90;99.90
75430;DHT22;64127;51.488;5.462;2024-03-06T10:51:35;15.10;99.90
75430;DHT22;64127;51.488;5.462;2024-03-06T10:54:08;15.30;99.90
75430;DHT22;64127;51.488;5.462;2024-03-06T10:56:42;15.50;99.90
75430;DHT22;64127;51.488;5.462;2024-03-06T10:59:15;15.60;99.90
75430;DHT22;64127;51.488;5.462;2024-03-06T11:01:50;15.60;99.90
75430;DHT22;64127;51.488;5.462;2024-03-06T11:04:27;15.80;99.90
75430;DHT22;64127;51.488;5.462;2024-03-06T11:07:06;15.90;99.90
75430;DHT22;64127;51.488;5.462;2024-03-06T11:09:40;15.90;99.90
75430;DHT22;64127;51.488;5.462;2024-03-06T11:12:13;16.00;99.90
75430;DHT22;64127;51.488;5.462;2024-03-06T11:15:16;15.70;99.90
75430;DHT22;64127;51.488;5.462;2024-03-06T11:17:50;15.20;99.90
75430;DHT22;64127;51.488;5.462;2024-03-06T11:20:33;14.90;99.90
75430;DHT22;64127;51.488;5.462;2024-03-06T11:23:07;14.60;99.90
75430;DHT22;64127;51.488;5.462;2024-03-06T11:28:27;14.50;99.90
75430;DHT22;64127;51.488;5.462;2024-03-06T11:31:10;14.40;99.90
75430;DHT22;64127;51.488;5.462;2024-03-06T11:33:47;14.30;99.90
75430;DHT22;64127;51.488;5.462;2024-03-06T11:36:28;14.50;99.90
75430;DHT22;64127;51.488;5.462;2024-03-06T11:39:08;14.70;99.90
75430;DHT22;64127;51.488;5.462;2024-03-06T11:44:16;14.70;99.40
75430;DHT22;64127;51.488;5.462;2024-03-06T11:49:33;14.60;99.10
75430;DHT22;64127;51.488;5.462;2024-03-06T11:52:10;14.60;99.10
75430;DHT22;64127;51.488;5.462;2024-03-06T11:54:42;14.80;99.00
75430;DHT22;64127;51.488;5.462;2024-03-06T11:57:14;15.00;98.40
75430;DHT22;64127;51.488;5.462;2024-03-06T11:59:48;15.00;97.70
75430;DHT22;64127;51.488;5.462;2024-03-06T12:02:20;14.90;97.70
75430;DHT22;64127;51.488;5.462;2024-03-06T12:04:53;14.90;97.30
75430;DHT22;64127;51.488;5.462;2024-03-06T12:07:25;14.90;97.40
75430;DHT22;64127;51.488;5.462;2024-03-06T12:09:58;15.00;96.90
75430;DHT22;64127;51.488;5.462;2024-03-06T12:12:30;15.10;96.80
75430;DHT22;64127;51.488;5.462;2024-03-06T12:15:03;15.20;96.40
75430;DHT22;64127;51.488;5.462;2024-03-06T12:17:45;15.10;95.90
75430;DHT22;64127;51.488;5.462;2024-03-06T12:20:24;14.90;95.80
75430;DHT22;64127;51.488;5.462;2024-03-06T12:22:57;14.80;96.10
75430;DHT22;64127;51.488;5.462;2024-03-06T12:25:30;14.70;96.30
75430;DHT22;64127;51.488;5.462;2024-03-06T12:28:07;14.60;96.60
75430;DHT22;64127;51.488;5.462;2024-03-06T12:30:43;14.60;96.10
75430;DHT22;64127;51.488;5.462;2024-03-06T12:33:16;14.50;96.10
75430;DHT22;64127;51.488;5.462;2024-03-06T12:36:00;14.50;96.10
75430;DHT22;64127;51.488;5.462;2024-03-06T12:38:42;14.50;96.10
75430;DHT22;64127;51.488;5.462;2024-03-06T12:41:14;14.50;96.20
75430;DHT22;64127;51.488;5.462;2024-03-06T12:43:46;14.40;96.00
75430;DHT22;64127;51.488;5.462;2024-03-06T12:46:19;14.30;96.00
75430;DHT22;64127;51.488;5.462;2024-03-06T12:48:51;14.20;96.10
75430;DHT22;64127;51.488;5.462;2024-03-06T12:51:23;14.10;96.20
75430;DHT22;64127;51.488;5.462;2024-03-06T12:53:55;13.90;96.20
75430;DHT22;64127;51.488;5.462;2024-03-06T12:56:28;13.80;96.30
75430;DHT22;64127;51.488;5.462;2024-03-06T12:59:00;13.70;96.50
75430;DHT22;64127;51.488;5.462;2024-03-06T13:01:32;13.60;96.50
75430;DHT22;64127;51.488;5.462;2024-03-06T13:04:04;13.50;96.60
75430;DHT22;64127;51.488;5.462;2024-03-06T13:06:41;13.50;96.80
75430;DHT22;64127;51.488;5.462;2024-03-06T13:09:13;13.50;96.80
75430;DHT22;64127;51.488;5.462;2024-03-06T13:11:45;13.50;96.90
75430;DHT22;64127;51.488;5.462;2024-03-06T13:14:18;13.40;96.90
75430;DHT22;64127;51.488;5.462;2024-03-06T13:16:50;13.40;96.90
75430;DHT22;64127;51.488;5.462;2024-03-06T13:19:22;13.40;97.00
75430;DHT22;64127;51.488;5.462;2024-03-06T13:21:54;13.50;96.90
75430;DHT22;64127;51.488;5.462;2024-03-06T13:24:27;13.40;96.80
75430;DHT22;64127;51.488;5.462;2024-03-06T13:27:00;13.40;96.70
75430;DHT22;64127;51.488;5.462;2024-03-06T13:29:32;13.40;96.40
75430;DHT22;64127;51.488;5.462;2024-03-06T13:32:06;13.50;96.50
75430;DHT22;64127;51.488;5.462;2024-03-06T13:34:38;13.40;96.10
75430;DHT22;64127;51.488;5.462;2024-03-06T13:37:11;13.50;96.00
75430;DHT22;64127;51.488;5.462;2024-03-06T13:39:43;13.50;95.90
75430;DHT22;64127;51.488;5.462;2024-03-06T13:42:15;13.50;96.00
75430;DHT22;64127;51.488;5.462;2024-03-06T13:44:47;13.60;95.80
75430;DHT22;64127;51.488;5.462;2024-03-06T13:47:19;13.70;95.70
75430;DHT22;64127;51.488;5.462;2024-03-06T13:49:51;13.70;95.60
75430;DHT22;64127;51.488;5.462;2024-03-06T13:52:23;13.90;95.40
75430;DHT22;64127;51.488;5.462;2024-03-06T13:54:56;14.10;95.30
75430;DHT22;64127;51.488;5.462;2024-03-06T13:57:28;14.30;94.90
75430;DHT22;64127;51.488;5.462;2024-03-06T14:00:05;14.70;94.40
75430;DHT22;64127;51.488;5.462;2024-03-06T14:02:44;14.80;94.00
75430;DHT22;64127;51.488;5.462;2024-03-06T14:05:19;14.80;93.60
75430;DHT22;64127;51.488;5.462;2024-03-06T14:07:56;14.80;93.30
75430;DHT22;64127;51.488;5.462;2024-03-06T14:10:29;14.70;93.00
75430;DHT22;64127;51.488;5.462;2024-03-06T14:13:05;14.60;93.00
75430;DHT22;64127;51.488;5.462;2024-03-06T14:15:38;14.50;93.00
75430;DHT22;64127;51.488;5.462;2024-03-06T14:18:10;14.30;93.00
75430;DHT22;64127;51.488;5.462;2024-03-06T14:20:42;14.30;93.00
75430;DHT22;64127;51.488;5.462;2024-03-06T14:23:15;14.20;93.00
75430;DHT22;64127;51.488;5.462;2024-03-06T14:25:47;14.10;93.10
75430;DHT22;64127;51.488;5.462;2024-03-06T14:28:19;14.10;93.30
75430;DHT22;64127;51.488;5.462;2024-03-06T14:30:51;14.00;93.30
75430;DHT22;64127;51.488;5.462;2024-03-06T14:33:23;14.20;93.50
75430;DHT22;64127;51.488;5.462;2024-03-06T14:35:55;14.60;93.30
75430;DHT22;64127;51.488;5.462;2024-03-06T14:38:28;15.00;92.70
75430;DHT22;64127;51.488;5.462;2024-03-06T14:41:00;15.30;91.90
75430;DHT22;64127;51.488;5.462;2024-03-06T14:43:32;15.70;91.80
75430;DHT22;64127;51.488;5.462;2024-03-06T14:46:05;16.20;91.40
75430;DHT22;64127;51.488;5.462;2024-03-06T14:48:38;16.70;90.70
75430;DHT22;64127;51.488;5.462;2024-03-06T14:51:12;17.30;89.80
75430;DHT22;64127;51.488;5.462;2024-03-06T14:53:45;17.80;88.10
75430;DHT22;64127;51.488;5.462;2024-03-06T14:56:17;18.00;86.20
75430;DHT22;64127;51.488;5.462;2024-03-06T14:58:50;17.80;84.80
75430;DHT22;64127;51.488;5.462;2024-03-06T15:01:23;17.50;84.60
75430;DHT22;64127;51.488;5.462;2024-03-06T15:03:57;17.00;84.60
75430;DHT22;64127;51.488;5.462;2024-03-06T15:06:30;16.50;84.90
75430;DHT22;64127;51.488;5.462;2024-03-06T15:09:02;16.20;85.60
75430;DHT22;64127;51.488;5.462;2024-03-06T15:11:36;16.20;85.70
75430;DHT22;64127;51.488;5.462;2024-03-06T15:14:08;16.00;86.20
75430;DHT22;64127;51.488;5.462;2024-03-06T15:16:40;15.80;85.30
75430;DHT22;64127;51.488;5.462;2024-03-06T15:19:14;15.70;85.00
75430;DHT22;64127;51.488;5.462;2024-03-06T15:21:47;15.60;85.00
75430;DHT22;64127;51.488;5.462;2024-03-06T15:24:19;15.50;85.20
75430;DHT22;64127;51.488;5.462;2024-03-06T15:26:52;15.50;85.10
75430;DHT22;64127;51.488;5.462;2024-03-06T15:29:24;15.40;84.80
75430;DHT22;64127;51.488;5.462;2024-03-06T15:31:56;15.30;84.90
75430;DHT22;64127;51.488;5.462;2024-03-06T15:34:28;15.30;85.30
75430;DHT22;64127;51.488;5.462;2024-03-06T15:37:00;15.20;85.30
75430;DHT22;64127;51.488;5.462;2024-03-06T15:39:32;15.20;86.10
75430;DHT22;64127;51.488;5.462;2024-03-06T15:42:04;15.20;85.40
75430;DHT22;64127;51.488;5.462;2024-03-06T15:44:37;15.10;85.60
75430;DHT22;64127;51.488;5.462;2024-03-06T15:47:09;15.00;85.70
75430;DHT22;64127;51.488;5.462;2024-03-06T15:49:42;15.00;86.00
75430;DHT22;64127;51.488;5.462;2024-03-06T15:52:15;15.00;86.30
75430;DHT22;64127;51.488;5.462;2024-03-06T15:54:47;14.90;86.80
75430;DHT22;64127;51.488;5.462;2024-03-06T15:57:20;14.80;87.10
75430;DHT22;64127;51.488;5.462;2024-03-06T15:59:53;14.80;86.90
75430;DHT22;64127;51.488;5.462;2024-03-06T16:02:26;14.70;87.00
75430;DHT22;64127;51.488;5.462;2024-03-06T16:04:58;14.80;87.10
75430;DHT22;64127;51.488;5.462;2024-03-06T16:07:30;14.90;87.10
75430;DHT22;64127;51.488;5.462;2024-03-06T16:10:06;15.10;87.10
75430;DHT22;64127;51.488;5.462;2024-03-06T16:12:39;15.60;86.60
75430;DHT22;64127;51.488;5.462;2024-03-06T16:15:11;15.90;85.50
75430;DHT22;64127;51.488;5.462;2024-03-06T16:17:44;16.10;84.50
75430;DHT22;64127;51.488;5.462;2024-03-06T16:20:17;16.10;84.20
75430;DHT22;64127;51.488;5.462;2024-03-06T16:22:49;15.90;84.30
75430;DHT22;64127;51.488;5.462;2024-03-06T16:25:21;15.90;84.50
75430;DHT22;64127;51.488;5.462;2024-03-06T16:27:53;15.70;85.20
75430;DHT22;64127;51.488;5.462;2024-03-06T16:30:25;15.40;86.30